createdAt,value
2017-04-22T00:00:28.756Z,99.99
2017-04-22T00:01:09.310Z,99.99
2017-04-22T00:01:49.810Z,99.99
2017-04-22T00:02:30.351Z,99.99
2017-04-22T00:03:10.890Z,99.99
2017-04-22T00:03:51.432Z,99.99
2017-04-22T00:04:31.961Z,99.99
2017-04-22T00:05:12.491Z,99.99
2017-04-22T00:05:53.038Z,99.99
2017-04-22T00:06:33.562Z,99.99
2017-04-22T00:07:14.127Z,99.99
2017-04-22T00:07:54.648Z,99.99
2017-04-22T00:08:35.191Z,99.99
2017-04-22T00:09:15.719Z,99.99
2017-04-22T00:09:56.266Z,99.99
2017-04-22T00:10:36.795Z,99.99
2017-04-22T00:11:17.341Z,99.99
2017-04-22T00:11:57.870Z,99.99
2017-04-22T00:12:38.418Z,99.99
2017-04-22T00:13:18.968Z,99.99
2017-04-22T00:13:59.515Z,99.99
2017-04-22T00:14:40.058Z,99.99
2017-04-22T00:15:20.590Z,99.99
2017-04-22T00:16:01.130Z,99.99
2017-04-22T00:16:41.670Z,99.99
2017-04-22T00:17:22.198Z,99.99
2017-04-22T00:18:02.744Z,99.99
2017-04-22T00:18:43.271Z,99.99
2017-04-22T00:19:23.808Z,99.99
2017-04-22T00:20:04.351Z,99.99
2017-04-22T00:20:44.895Z,99.99
2017-04-22T00:21:25.430Z,99.99
2017-04-22T00:22:05.959Z,99.99
2017-04-22T00:22:46.498Z,99.99
2017-04-22T00:23:27.028Z,99.99
2017-04-22T00:24:07.567Z,99.99
2017-04-22T00:24:48.109Z,99.99
2017-04-22T00:25:28.645Z,99.99
2017-04-22T00:26:09.178Z,99.99
2017-04-22T00:26:49.702Z,99.99
2017-04-22T00:27:30.240Z,99.99
2017-04-22T00:28:10.774Z,99.99
2017-04-22T00:28:51.330Z,99.99
2017-04-22T00:29:31.874Z,99.99
2017-04-22T00:30:12.408Z,99.99
2017-04-22T00:30:52.953Z,99.99
2017-04-22T00:31:33.487Z,99.99
2017-04-22T00:32:14.014Z,99.99
2017-04-22T00:32:54.559Z,99.99
2017-04-22T00:33:35.113Z,99.99
2017-04-22T00:34:15.637Z,99.99
2017-04-22T00:34:56.173Z,99.99
2017-04-22T00:35:36.713Z,99.99
2017-04-22T00:36:17.259Z,99.99
2017-04-22T00:36:57.793Z,99.99
2017-04-22T00:37:38.313Z,99.99
2017-04-22T00:38:18.863Z,99.99
2017-04-22T00:38:59.391Z,99.99
2017-04-22T00:39:39.941Z,99.99
2017-04-22T00:40:20.474Z,99.99
2017-04-22T00:41:01.016Z,99.99
2017-04-22T00:41:41.543Z,99.99
2017-04-22T00:42:22.072Z,99.99
2017-04-22T00:43:02.617Z,99.99
2017-04-22T00:43:43.143Z,99.99
2017-04-22T00:44:23.679Z,99.99
2017-04-22T00:45:04.222Z,99.99
2017-04-22T00:45:44.752Z,99.99
2017-04-22T00:46:25.272Z,99.99
2017-04-22T00:47:05.818Z,99.99
2017-04-22T00:47:46.349Z,99.99
2017-04-22T00:48:26.882Z,99.99
2017-04-22T00:49:07.424Z,99.99
2017-04-22T00:49:47.971Z,99.99
2017-04-22T00:50:28.500Z,99.99
2017-04-22T00:51:09.034Z,99.99
2017-04-22T00:51:49.563Z,99.99
2017-04-22T00:52:30.102Z,99.99
2017-04-22T00:53:10.653Z,99.99
2017-04-22T00:53:51.188Z,99.99
2017-04-22T00:54:31.730Z,99.99
2017-04-22T00:55:12.276Z,99.99
2017-04-22T00:55:52.817Z,99.99
2017-04-22T00:56:33.355Z,99.99
2017-04-22T00:57:13.883Z,99.99
2017-04-22T00:57:54.421Z,99.99
2017-04-22T00:58:34.956Z,99.99
2017-04-22T00:59:15.494Z,99.55
2017-04-22T00:59:56.033Z,98.79
2017-04-22T01:00:36.584Z,98.41
2017-04-22T01:01:17.121Z,98.41
2017-04-22T01:01:57.653Z,98.99
2017-04-22T01:02:38.187Z,97.75
2017-04-22T01:03:18.724Z,97.94
2017-04-22T01:03:59.263Z,96.8
2017-04-22T01:04:39.788Z,97.08
2017-04-22T01:05:20.358Z,96.32
2017-04-22T01:06:00.903Z,95.27
2017-04-22T01:06:41.440Z,95.75
2017-04-22T01:07:21.978Z,95.46
2017-04-22T01:08:02.514Z,94.7
2017-04-22T01:08:43.040Z,94.98
2017-04-22T01:09:23.587Z,94.32
2017-04-22T01:10:04.116Z,94.22
2017-04-22T01:10:44.656Z,93.84
2017-04-22T01:11:25.195Z,93.65
2017-04-22T01:12:05.738Z,93.37
2017-04-22T01:12:46.275Z,93.08
2017-04-22T01:13:26.818Z,92.41
2017-04-22T01:14:07.343Z,92.6
2017-04-22T01:14:47.873Z,92.32
2017-04-22T01:15:28.416Z,92.13
2017-04-22T01:16:08.962Z,91.74
2017-04-22T01:16:49.502Z,92.03
2017-04-22T01:17:30.042Z,91.65
2017-04-22T01:18:10.593Z,90.7
2017-04-22T01:18:51.125Z,90.98
2017-04-22T01:19:31.651Z,90.7
2017-04-22T01:20:12.197Z,90.31
2017-04-22T01:20:52.727Z,90.7
2017-04-22T01:21:33.278Z,89.65
2017-04-22T01:22:13.828Z,89.26
2017-04-22T01:22:54.379Z,89.07
2017-04-22T01:23:34.922Z,89.07
2017-04-22T01:24:15.458Z,88.7
2017-04-22T01:24:55.982Z,88.41
2017-04-22T01:25:36.524Z,88.41
2017-04-22T01:26:17.058Z,88.31
2017-04-22T01:26:57.617Z,88.12
2017-04-22T01:27:38.159Z,88.41
2017-04-22T01:28:18.707Z,88.41
2017-04-22T01:28:59.234Z,88.12
2017-04-22T01:29:39.781Z,87.93
2017-04-22T01:30:20.324Z,88.03
2017-04-22T01:31:00.867Z,88.12
2017-04-22T01:31:41.397Z,87.74
2017-04-22T01:32:21.931Z,86.88
2017-04-22T01:33:02.464Z,87.07
2017-04-22T01:33:43.010Z,87.27
2017-04-22T01:34:23.538Z,87.27
2017-04-22T01:35:04.089Z,86.69
2017-04-22T01:35:44.628Z,86.98
2017-04-22T01:36:25.170Z,86.88
2017-04-22T01:37:05.716Z,86.12
2017-04-22T01:37:46.256Z,86.32
2017-04-22T01:38:26.792Z,86.6
2017-04-22T01:39:07.321Z,86.03
2017-04-22T01:39:47.866Z,85.93
2017-04-22T01:40:28.399Z,86.03
2017-04-22T01:41:08.932Z,85.46
2017-04-22T01:41:49.467Z,85.36
2017-04-22T01:42:30.008Z,85.64
2017-04-22T01:43:10.547Z,85.17
2017-04-22T01:43:51.095Z,85.36
2017-04-22T01:44:31.624Z,85.36
2017-04-22T01:45:12.179Z,85.27
2017-04-22T01:45:52.725Z,85.27
2017-04-22T01:46:33.257Z,85.93
2017-04-22T01:47:13.802Z,85.93
2017-04-22T01:47:54.345Z,85.93
2017-04-22T01:48:34.884Z,85.84
2017-04-22T01:49:15.430Z,85.74
2017-04-22T01:49:55.976Z,86.12
2017-04-22T01:50:36.504Z,85.84
2017-04-22T01:51:17.036Z,85.93
2017-04-22T01:51:57.581Z,86.32
2017-04-22T01:52:38.129Z,86.03
2017-04-22T01:53:18.702Z,85.93
2017-04-22T01:53:59.208Z,85.93
2017-04-22T01:54:39.745Z,85.93
2017-04-22T01:55:20.331Z,85.27
2017-04-22T01:56:00.862Z,84.98
2017-04-22T01:56:41.407Z,85.17
2017-04-22T01:57:21.948Z,85.08
2017-04-22T01:58:02.491Z,85.36
2017-04-22T01:58:43.035Z,85.36
2017-04-22T01:59:23.570Z,85.27
2017-04-22T02:00:04.113Z,85.36
2017-04-22T02:00:44.655Z,85.93
2017-04-22T02:01:25.198Z,86.03
2017-04-22T02:02:05.715Z,86.41
2017-04-22T02:02:46.267Z,86.12
2017-04-22T02:03:26.801Z,86.6
2017-04-22T02:04:07.344Z,86.41
2017-04-22T02:04:47.890Z,86.79
2017-04-22T02:05:28.420Z,86.98
2017-04-22T02:06:08.963Z,87.07
2017-04-22T02:06:49.491Z,86.88
2017-04-22T02:07:30.033Z,86.98
2017-04-22T02:08:10.572Z,86.69
2017-04-22T02:08:51.119Z,86.79
2017-04-22T02:09:31.654Z,86.98
2017-04-22T02:10:12.193Z,87.36
2017-04-22T02:10:52.718Z,87.07
2017-04-22T02:11:33.251Z,87.17
2017-04-22T02:12:13.798Z,88.03
2017-04-22T02:12:54.329Z,87.55
2017-04-22T02:13:34.878Z,88.12
2017-04-22T02:14:15.422Z,87.93
2017-04-22T02:14:55.957Z,88.03
2017-04-22T02:15:36.505Z,87.93
2017-04-22T02:16:17.047Z,87.93
2017-04-22T02:16:57.580Z,88.31
2017-04-22T02:17:38.110Z,87.74
2017-04-22T02:18:18.664Z,87.74
2017-04-22T02:18:59.195Z,87.65
2017-04-22T02:19:39.731Z,86.98
2017-04-22T02:20:20.273Z,87.17
2017-04-22T02:21:00.826Z,87.17
2017-04-22T02:21:41.369Z,86.98
2017-04-22T02:22:21.905Z,87.36
2017-04-22T02:23:02.440Z,86.79
2017-04-22T02:23:42.981Z,87.07
2017-04-22T02:24:23.522Z,87.36
2017-04-22T02:25:04.061Z,87.27
2017-04-22T02:25:44.609Z,86.69
2017-04-22T02:26:25.153Z,86.69
2017-04-22T02:27:05.689Z,86.88
2017-04-22T02:27:46.228Z,86.98
2017-04-22T02:28:26.779Z,86.69
2017-04-22T02:29:07.320Z,86.69
2017-04-22T02:29:47.863Z,86.98
2017-04-22T02:30:28.392Z,86.69
2017-04-22T02:31:08.940Z,86.88
2017-04-22T02:31:49.469Z,87.36
2017-04-22T02:32:29.995Z,87.65
2017-04-22T02:33:10.542Z,88.31
2017-04-22T02:33:51.081Z,88.22
2017-04-22T02:34:31.634Z,88.12
2017-04-22T02:35:12.174Z,87.74
2017-04-22T02:35:52.709Z,88.03
2017-04-22T02:36:33.248Z,87.93
2017-04-22T02:37:13.790Z,88.03
2017-04-22T02:37:54.322Z,88.22
2017-04-22T02:38:34.872Z,88.41
2017-04-22T02:39:15.401Z,88.6
2017-04-22T02:39:55.947Z,88.41
2017-04-22T02:40:36.490Z,89.17
2017-04-22T02:41:17.030Z,88.98
2017-04-22T02:41:57.567Z,88.89
2017-04-22T02:42:38.104Z,89.36
2017-04-22T02:43:18.629Z,88.79
2017-04-22T02:43:59.176Z,88.79
2017-04-22T02:44:39.730Z,88.89
2017-04-22T02:45:20.257Z,88.7
2017-04-22T02:46:00.803Z,88.79
2017-04-22T02:46:41.336Z,89.26
2017-04-22T02:47:21.877Z,88.98
2017-04-22T02:48:02.416Z,89.46
2017-04-22T02:48:42.957Z,89.94
2017-04-22T02:49:23.483Z,89.75
2017-04-22T02:50:04.031Z,90.03
2017-04-22T02:50:44.580Z,89.17
2017-04-22T02:51:25.109Z,89.07
2017-04-22T02:52:05.656Z,89.17
2017-04-22T02:52:46.205Z,89.07
2017-04-22T02:53:26.785Z,88.6
2017-04-22T02:54:07.326Z,88.89
2017-04-22T02:54:47.861Z,89.07
2017-04-22T02:55:28.405Z,88.79
2017-04-22T02:56:08.955Z,88.6
2017-04-22T02:56:49.488Z,88.41
2017-04-22T02:57:30.017Z,88.31
2017-04-22T02:58:10.566Z,88.12
2017-04-22T02:58:51.098Z,87.93
2017-04-22T02:59:31.640Z,88.12
2017-04-22T03:00:12.192Z,87.93
2017-04-22T03:00:52.745Z,87.74
2017-04-22T03:01:33.286Z,88.22
2017-04-22T03:02:13.821Z,88.41
2017-04-22T03:02:54.384Z,88.89
2017-04-22T03:03:34.922Z,89.17
2017-04-22T03:04:15.473Z,88.98
2017-04-22T03:04:55.997Z,89.75
2017-04-22T03:05:36.548Z,89.65
2017-04-22T03:06:17.077Z,88.79
2017-04-22T03:06:57.624Z,89.46
2017-04-22T03:07:38.153Z,89.36
2017-04-22T03:08:18.705Z,89.75
2017-04-22T03:08:59.229Z,90.12
2017-04-22T03:09:39.778Z,89.65
2017-04-22T03:10:20.328Z,90.41
2017-04-22T03:11:00.882Z,90.03
2017-04-22T03:11:41.423Z,90.31
2017-04-22T03:12:21.962Z,90.5
2017-04-22T03:13:02.505Z,90.7
2017-04-22T03:13:43.034Z,90.79
2017-04-22T03:14:23.579Z,91.84
2017-04-22T03:15:04.166Z,91.36
2017-04-22T03:15:44.683Z,91.65
2017-04-22T03:16:25.218Z,91.74
2017-04-22T03:17:05.760Z,93.17
2017-04-22T03:17:46.311Z,94.13
2017-04-22T03:18:26.835Z,93.93
2017-04-22T03:19:07.387Z,94.51
2017-04-22T03:19:47.925Z,93.74
2017-04-22T03:20:28.478Z,95.32
2017-04-22T03:21:09.018Z,95.46
2017-04-22T03:21:49.562Z,95.27
2017-04-22T03:22:30.094Z,95.7
2017-04-22T03:23:10.637Z,95.56
2017-04-22T03:23:51.170Z,95.56
2017-04-22T03:24:31.692Z,95.41
2017-04-22T03:25:12.243Z,95.94
2017-04-22T03:25:52.783Z,95.61
2017-04-22T03:26:33.327Z,96.12
2017-04-22T03:27:13.865Z,96.27
2017-04-22T03:27:54.396Z,96.8
2017-04-22T03:28:34.930Z,96.32
2017-04-22T03:29:15.523Z,97.03
2017-04-22T03:29:56.126Z,97.03
2017-04-22T03:30:36.733Z,97.41
2017-04-22T03:31:17.244Z,97.36
2017-04-22T03:31:57.855Z,97.41
2017-04-22T03:32:38.439Z,97.75
2017-04-22T03:33:19.008Z,97.17
2017-04-22T03:33:59.589Z,96.7
2017-04-22T03:34:40.174Z,98.13
2017-04-22T03:35:20.772Z,97.56
2017-04-22T03:36:01.316Z,98.56
2017-04-22T03:36:41.918Z,98.56
2017-04-22T03:37:22.490Z,98.99
2017-04-22T03:38:03.168Z,99.08
2017-04-22T03:38:43.778Z,98.85
2017-04-22T03:39:24.416Z,99.55
2017-04-22T03:40:04.992Z,99.55
2017-04-22T03:40:45.528Z,99.37
2017-04-22T03:41:26.103Z,99.41
2017-04-22T03:42:06.669Z,99.37
2017-04-22T03:42:47.242Z,99.46
2017-04-22T03:43:27.885Z,99.99
2017-04-22T03:44:08.433Z,99.6
2017-04-22T03:44:49.024Z,99.99
2017-04-22T03:45:29.580Z,99.99
2017-04-22T03:46:10.156Z,99.65
2017-04-22T03:46:50.737Z,99.94
2017-04-22T03:47:31.325Z,99.7
2017-04-22T03:48:11.861Z,99.99
2017-04-22T03:48:52.455Z,99.99
2017-04-22T03:49:33.055Z,99.99
2017-04-22T03:50:13.620Z,99.99
2017-04-22T03:50:54.215Z,99.99
2017-04-22T03:51:34.747Z,99.99
2017-04-22T03:52:15.262Z,99.99
2017-04-22T03:52:55.845Z,99.99
2017-04-22T03:53:36.416Z,99.99
2017-04-22T03:54:16.956Z,99.99
2017-04-22T03:54:57.456Z,99.99
2017-04-22T03:55:38.004Z,99.99
2017-04-22T03:56:18.551Z,99.99
2017-04-22T03:56:59.092Z,99.99
2017-04-22T03:57:39.634Z,99.99
2017-04-22T03:58:20.160Z,99.7
2017-04-22T03:59:00.709Z,99.37
2017-04-22T03:59:41.261Z,99.55
2017-04-22T04:00:21.798Z,99.8
2017-04-22T04:01:02.338Z,99.55
2017-04-22T04:01:42.883Z,98.79
2017-04-22T04:02:23.410Z,99.18
2017-04-22T04:03:03.941Z,99.08
2017-04-22T04:03:44.492Z,98.03
2017-04-22T04:04:25.051Z,98.41
2017-04-22T04:05:05.588Z,98.22
2017-04-22T04:05:46.113Z,98.32
2017-04-22T04:06:26.666Z,98.7
2017-04-22T04:07:07.216Z,98.46
2017-04-22T04:07:47.749Z,98.13
2017-04-22T04:08:28.294Z,97.94
2017-04-22T04:09:08.830Z,97.84
2017-04-22T04:09:49.368Z,98.22
2017-04-22T04:10:29.894Z,97.94
2017-04-22T04:11:10.443Z,98.03
2017-04-22T04:11:50.996Z,97.75
2017-04-22T04:12:31.525Z,97.08
2017-04-22T04:13:12.072Z,96.8
2017-04-22T04:13:52.613Z,97.46
2017-04-22T04:14:33.157Z,97.65
2017-04-22T04:15:13.699Z,96.89
2017-04-22T04:15:54.236Z,97.17
2017-04-22T04:16:34.775Z,97.08
2017-04-22T04:17:15.310Z,96.98
2017-04-22T04:17:55.850Z,97.08
2017-04-22T04:18:36.401Z,96.98
2017-04-22T04:19:16.926Z,97.17
2017-04-22T04:19:57.471Z,97.75
2017-04-22T04:20:38.021Z,97.36
2017-04-22T04:21:18.550Z,97.17
2017-04-22T04:21:59.084Z,97.36
2017-04-22T04:22:39.607Z,97.46
2017-04-22T04:23:20.159Z,97.65
2017-04-22T04:24:00.685Z,97.75
2017-04-22T04:24:41.225Z,97.94
2017-04-22T04:25:21.762Z,97.36
2017-04-22T04:26:02.316Z,97.36
2017-04-22T04:26:42.855Z,97.46
2017-04-22T04:27:23.382Z,97.75
2017-04-22T04:28:03.914Z,97.56
2017-04-22T04:28:44.462Z,96.8
2017-04-22T04:29:24.984Z,98.13
2017-04-22T04:30:05.530Z,97.94
2017-04-22T04:30:46.078Z,97.65
2017-04-22T04:31:26.719Z,97.65
2017-04-22T04:32:07.309Z,97.84
2017-04-22T04:32:47.838Z,97.84
2017-04-22T04:33:28.422Z,98.03
2017-04-22T04:34:08.949Z,97.94
2017-04-22T04:34:49.484Z,97.84
2017-04-22T04:35:30.021Z,98.13
2017-04-22T04:36:10.549Z,97.84
2017-04-22T04:36:51.096Z,98.22
2017-04-22T04:37:31.624Z,98.22
2017-04-22T04:38:12.174Z,97.65
2017-04-22T04:38:52.701Z,98.03
2017-04-22T04:39:33.240Z,97.94
2017-04-22T04:40:13.768Z,98.03
2017-04-22T04:40:54.303Z,97.84
2017-04-22T04:41:34.852Z,98.51
2017-04-22T04:42:15.406Z,98.51
2017-04-22T04:42:55.948Z,98.51
2017-04-22T04:43:36.497Z,98.79
2017-04-22T04:44:17.030Z,98.13
2017-04-22T04:44:57.596Z,98.41
2017-04-22T04:45:38.128Z,98.41
2017-04-22T04:46:18.665Z,98.51
2017-04-22T04:46:59.210Z,98.41
2017-04-22T04:47:39.743Z,98.51
2017-04-22T04:48:20.288Z,98.41
2017-04-22T04:49:00.836Z,98.41
2017-04-22T04:49:41.441Z,98.7
2017-04-22T04:50:21.983Z,98.41
2017-04-22T04:51:02.539Z,97.94
2017-04-22T04:51:43.096Z,98.22
2017-04-22T04:52:23.635Z,98.13
2017-04-22T04:53:04.162Z,98.22
2017-04-22T04:53:44.690Z,98.03
2017-04-22T04:54:25.243Z,97.94
2017-04-22T04:55:05.787Z,98.13
2017-04-22T04:55:46.316Z,97.75
2017-04-22T04:56:26.844Z,98.03
2017-04-22T04:57:07.399Z,96.7
2017-04-22T04:57:47.941Z,97.56
2017-04-22T04:58:28.471Z,97.56
2017-04-22T04:59:09.009Z,97.17
2017-04-22T04:59:49.547Z,96.7
2017-04-22T05:00:30.092Z,96.98
2017-04-22T05:01:10.620Z,96.51
2017-04-22T05:01:51.152Z,96.51
2017-04-22T05:02:31.701Z,96.6
2017-04-22T05:03:12.224Z,95.46
2017-04-22T05:03:52.763Z,95.36
2017-04-22T05:04:33.299Z,95.08
2017-04-22T05:05:13.845Z,93.74
2017-04-22T05:05:54.376Z,93.46
2017-04-22T05:06:34.922Z,93.27
2017-04-22T05:07:15.453Z,91.65
2017-04-22T05:07:56.002Z,91.46
2017-04-22T05:08:36.553Z,90.5
2017-04-22T05:09:17.080Z,90.41
2017-04-22T05:09:57.623Z,90.5
2017-04-22T05:10:38.181Z,89.65
2017-04-22T05:11:18.730Z,89.65
2017-04-22T05:11:59.269Z,88.51
2017-04-22T05:12:39.810Z,88.12
2017-04-22T05:13:20.350Z,87.93
2017-04-22T05:14:00.885Z,88.12
2017-04-22T05:14:41.450Z,87.07
2017-04-22T05:15:21.963Z,86.79
2017-04-22T05:16:02.511Z,86.22
2017-04-22T05:16:43.051Z,85.6
2017-04-22T05:17:23.585Z,84.84
2017-04-22T05:18:04.120Z,84.56
2017-04-22T05:18:44.656Z,84.36
2017-04-22T05:19:25.191Z,83.8
2017-04-22T05:20:05.736Z,83.61
2017-04-22T05:20:46.267Z,83.89
2017-04-22T05:21:26.814Z,83.89
2017-04-22T05:22:07.342Z,83.65
2017-04-22T05:22:47.877Z,83.75
2017-04-22T05:23:28.427Z,83.75
2017-04-22T05:24:08.942Z,83.75
2017-04-22T05:24:49.472Z,83.85
2017-04-22T05:25:30.019Z,83.85
2017-04-22T05:26:10.564Z,83.75
2017-04-22T05:26:51.091Z,84.04
2017-04-22T05:27:31.627Z,83.85
2017-04-22T05:28:12.174Z,83.75
2017-04-22T05:28:52.724Z,83.75
2017-04-22T05:29:33.258Z,83.94
2017-04-22T05:30:13.821Z,83.75
2017-04-22T05:30:54.389Z,83.56
2017-04-22T05:31:34.931Z,83.65
2017-04-22T05:32:15.458Z,83.75
2017-04-22T05:32:56.020Z,83.75
2017-04-22T05:33:36.556Z,83.71
2017-04-22T05:34:17.129Z,84.38
2017-04-22T05:34:57.686Z,84.09
2017-04-22T05:35:38.231Z,84.76
2017-04-22T05:36:18.773Z,84.66
2017-04-22T05:36:59.332Z,84.56
2017-04-22T05:37:39.852Z,84.66
2017-04-22T05:38:20.398Z,84.47
2017-04-22T05:39:00.929Z,84.76
2017-04-22T05:39:41.501Z,84.76
2017-04-22T05:40:22.033Z,84.56
2017-04-22T05:41:02.561Z,84.76
2017-04-22T05:41:43.110Z,84.47
2017-04-22T05:42:23.655Z,84.95
2017-04-22T05:43:04.195Z,84.28
2017-04-22T05:43:44.735Z,84.09
2017-04-22T05:44:25.262Z,83.52
2017-04-22T05:45:05.785Z,83.14
2017-04-22T05:45:46.309Z,83.42
2017-04-22T05:46:26.858Z,82.86
2017-04-22T05:47:07.680Z,82.43
2017-04-22T05:47:48.426Z,82.15
2017-04-22T05:48:28.958Z,81.29
2017-04-22T05:49:09.478Z,80.91
2017-04-22T05:49:50.026Z,81.01
2017-04-22T05:50:30.568Z,80.63
2017-04-22T05:51:11.107Z,79.49
2017-04-22T05:51:51.655Z,78.72
2017-04-22T05:52:32.204Z,78.34
2017-04-22T05:53:12.737Z,77.97
2017-04-22T05:53:53.512Z,77.58
2017-04-22T05:54:34.079Z,76.73
2017-04-22T05:55:14.612Z,76.5
2017-04-22T05:55:55.151Z,75.74
2017-04-22T05:56:35.687Z,75.55
2017-04-22T05:57:16.212Z,75.11
2017-04-22T05:57:56.867Z,74.6
2017-04-22T05:58:37.390Z,74.31
2017-04-22T05:59:17.931Z,74.16
2017-04-22T05:59:58.462Z,73.55
2017-04-22T06:00:38.995Z,72.79
2017-04-22T06:01:19.531Z,72.79
2017-04-22T06:02:00.070Z,72.13
2017-04-22T06:02:40.625Z,71.56
2017-04-22T06:03:21.152Z,71.27
2017-04-22T06:04:01.696Z,70.7
2017-04-22T06:04:42.249Z,70.32
2017-04-22T06:05:22.781Z,69.85
2017-04-22T06:06:03.325Z,69.66
2017-04-22T06:06:43.850Z,69.56
2017-04-22T06:07:24.384Z,68.9
2017-04-22T06:08:04.900Z,68.71
2017-04-22T06:08:45.444Z,67.85
2017-04-22T06:09:25.980Z,67.94
2017-04-22T06:10:06.510Z,67.57
2017-04-22T06:10:47.101Z,67
2017-04-22T06:11:27.666Z,66.61
2017-04-22T06:12:08.189Z,66.05
2017-04-22T06:12:48.725Z,66.42
2017-04-22T06:13:29.256Z,65.95
2017-04-22T06:14:09.772Z,65.76
2017-04-22T06:14:50.312Z,65.28
2017-04-22T06:15:30.831Z,65
2017-04-22T06:16:11.360Z,64.81
2017-04-22T06:16:51.901Z,64.72
2017-04-22T06:17:32.455Z,64.81
2017-04-22T06:18:12.997Z,64.14
2017-04-22T06:18:53.526Z,64.24
2017-04-22T06:19:34.067Z,64.24
2017-04-22T06:20:14.599Z,63.39
2017-04-22T06:20:55.137Z,63.2
2017-04-22T06:21:35.665Z,63.2
2017-04-22T06:22:16.189Z,62.72
2017-04-22T06:22:56.737Z,62.53
2017-04-22T06:23:37.263Z,62.43
2017-04-22T06:24:17.801Z,62.24
2017-04-22T06:24:58.336Z,61.96
2017-04-22T06:25:38.923Z,61.48
2017-04-22T06:26:19.467Z,61.77
2017-04-22T06:27:00.000Z,61.77
2017-04-22T06:27:40.536Z,61.1
2017-04-22T06:28:21.067Z,61.29
2017-04-22T06:29:01.590Z,60.53
2017-04-22T06:29:42.118Z,60.91
2017-04-22T06:30:22.649Z,60.82
2017-04-22T06:31:03.190Z,61.1
2017-04-22T06:31:43.715Z,60.72
2017-04-22T06:32:24.250Z,60.63
2017-04-22T06:33:04.793Z,60.53
2017-04-22T06:33:45.328Z,60.63
2017-04-22T06:34:25.872Z,60.35
2017-04-22T06:35:06.405Z,60.25
2017-04-22T06:35:46.918Z,60.06
2017-04-22T06:36:27.453Z,60.25
2017-04-22T06:37:07.996Z,60.25
2017-04-22T06:37:48.525Z,60.16
2017-04-22T06:38:29.101Z,59.68
2017-04-22T06:39:09.627Z,59.77
2017-04-22T06:39:50.203Z,59.87
2017-04-22T06:40:30.738Z,59.87
2017-04-22T06:41:11.277Z,59.68
2017-04-22T06:41:51.817Z,59.68
2017-04-22T06:42:32.376Z,59.39
2017-04-22T06:43:12.915Z,59.58
2017-04-22T06:43:53.454Z,59.68
2017-04-22T06:44:33.983Z,59.68
2017-04-22T06:45:14.533Z,59.2
2017-04-22T06:45:55.067Z,59.58
2017-04-22T06:46:35.607Z,59.68
2017-04-22T06:47:16.136Z,59.2
2017-04-22T06:47:56.713Z,58.63
2017-04-22T06:48:37.323Z,58.83
2017-04-22T06:49:17.857Z,58.44
2017-04-22T06:49:58.390Z,58.73
2017-04-22T06:50:38.928Z,58.54
2017-04-22T06:51:19.440Z,58.44
2017-04-22T06:51:59.985Z,58.44
2017-04-22T06:52:40.516Z,58.63
2017-04-22T06:53:21.060Z,58.83
2017-04-22T06:54:01.651Z,58.44
2017-04-22T06:54:42.225Z,58.73
2017-04-22T06:55:22.753Z,58.73
2017-04-22T06:56:03.305Z,57.78
2017-04-22T06:56:43.848Z,57.78
2017-04-22T06:57:24.375Z,58.16
2017-04-22T06:58:04.900Z,57.87
2017-04-22T06:58:45.440Z,57.87
2017-04-22T06:59:26.017Z,57.68
2017-04-22T07:00:06.589Z,57.78
2017-04-22T07:00:47.149Z,57.68
2017-04-22T07:01:27.688Z,57.3
2017-04-22T07:02:08.239Z,57.4
2017-04-22T07:02:48.794Z,57.3
2017-04-22T07:03:29.341Z,57.5
2017-04-22T07:04:09.895Z,57.21
2017-04-22T07:04:50.431Z,57.3
2017-04-22T07:05:30.958Z,57.11
2017-04-22T07:06:11.505Z,56.83
2017-04-22T07:06:52.038Z,57.78
2017-04-22T07:07:32.581Z,57.3
2017-04-22T07:08:13.224Z,57.3
2017-04-22T07:08:53.865Z,57.11
2017-04-22T07:09:34.451Z,57.4
2017-04-22T07:10:14.983Z,57.97
2017-04-22T07:10:55.558Z,58.32
2017-04-22T07:11:36.142Z,57.65
2017-04-22T07:12:16.702Z,57.28
2017-04-22T07:12:57.258Z,56.89
2017-04-22T07:13:37.825Z,56.7
2017-04-22T07:14:18.412Z,56.99
2017-04-22T07:14:59.030Z,56.51
2017-04-22T07:15:39.616Z,56.61
2017-04-22T07:16:20.144Z,56.61
2017-04-22T07:17:00.697Z,56.32
2017-04-22T07:17:41.244Z,56.51
2017-04-22T07:18:21.796Z,55.94
2017-04-22T07:19:02.346Z,55.94
2017-04-22T07:19:42.875Z,55.94
2017-04-22T07:20:23.453Z,55.94
2017-04-22T07:21:04.039Z,55.66
2017-04-22T07:21:44.613Z,55.47
2017-04-22T07:22:25.175Z,55.85
2017-04-22T07:23:05.744Z,55.76
2017-04-22T07:23:46.285Z,55.57
2017-04-22T07:24:26.826Z,55.66
2017-04-22T07:25:07.366Z,55.09
2017-04-22T07:25:47.917Z,54.99
2017-04-22T07:26:28.510Z,55.28
2017-04-22T07:27:09.109Z,54.99
2017-04-22T07:27:49.620Z,54.43
2017-04-22T07:28:30.223Z,54.71
2017-04-22T07:29:10.792Z,54.99
2017-04-22T07:29:51.323Z,54.52
2017-04-22T07:30:31.854Z,54.52
2017-04-22T07:31:12.403Z,54.71
2017-04-22T07:31:52.941Z,54.24
2017-04-22T07:32:33.505Z,54.24
2017-04-22T07:33:14.071Z,53.95
2017-04-22T07:33:54.642Z,53.66
2017-04-22T07:34:35.242Z,53.95
2017-04-22T07:35:15.810Z,53.88
2017-04-22T07:35:56.344Z,53.97
2017-04-22T07:36:36.870Z,53.88
2017-04-22T07:37:17.413Z,53.5
2017-04-22T07:37:57.967Z,53.5
2017-04-22T07:38:38.523Z,53.59
2017-04-22T07:39:19.071Z,53.59
2017-04-22T07:39:59.612Z,53.69
2017-04-22T07:40:40.165Z,53.22
2017-04-22T07:41:20.760Z,53.78
2017-04-22T07:42:01.350Z,53.97
2017-04-22T07:42:41.968Z,53.97
2017-04-22T07:43:22.524Z,53.97
2017-04-22T07:44:03.116Z,53.78
2017-04-22T07:44:43.638Z,53.5
2017-04-22T07:45:24.207Z,53.97
2017-04-22T07:46:04.769Z,54.07
2017-04-22T07:46:45.339Z,53.78
2017-04-22T07:47:25.887Z,53.97
2017-04-22T07:48:06.448Z,54.45
2017-04-22T07:48:51.679Z,54.64
2017-04-22T07:49:32.285Z,54.93
2017-04-22T07:50:12.913Z,54.93
2017-04-22T07:50:53.474Z,54.93
2017-04-22T07:51:34.052Z,55.4
2017-04-22T07:52:14.703Z,55.59
2017-04-22T07:52:55.246Z,55.78
2017-04-22T07:53:35.752Z,56.63
2017-04-22T07:54:16.331Z,56.16
2017-04-22T07:54:56.853Z,56.16
2017-04-22T07:55:37.405Z,55.97
2017-04-22T07:56:17.951Z,56.16
2017-04-22T07:56:58.495Z,56.35
2017-04-22T07:57:39.096Z,56.16
2017-04-22T07:58:19.681Z,56.07
2017-04-22T07:59:00.213Z,56.26
2017-04-22T07:59:40.745Z,56.07
2017-04-22T08:00:21.310Z,56.26
2017-04-22T08:01:01.855Z,56.16
2017-04-22T08:01:42.407Z,56.45
2017-04-22T08:02:22.924Z,56.16
2017-04-22T08:03:03.472Z,56.63
2017-04-22T08:03:44.008Z,56.35
2017-04-22T08:04:24.562Z,56.35
2017-04-22T08:05:05.079Z,56.07
2017-04-22T08:05:45.649Z,56.07
2017-04-22T08:06:26.161Z,55.78
2017-04-22T08:07:06.697Z,55.97
2017-04-22T08:07:47.250Z,56.07
2017-04-22T08:08:27.773Z,56.16
2017-04-22T08:09:08.339Z,56.54
2017-04-22T08:09:48.870Z,56.07
2017-04-22T08:10:29.420Z,56.45
2017-04-22T08:11:10.017Z,56.07
2017-04-22T08:13:24.306Z,56.16
2017-04-22T08:14:04.860Z,56.54
2017-04-22T08:14:45.396Z,55.97
2017-04-22T08:15:25.949Z,56.16
2017-04-22T08:16:06.506Z,56.26
2017-04-22T08:16:47.040Z,55.97
2017-04-22T08:17:27.578Z,56.07
2017-04-22T08:18:08.129Z,56.26
2017-04-22T08:18:48.705Z,55.59
2017-04-22T08:19:29.261Z,55.88
2017-04-22T08:20:09.797Z,55.59
2017-04-22T08:20:50.327Z,55.4
2017-04-22T08:21:30.880Z,55.5
2017-04-22T08:22:17.913Z,54.83
2017-04-22T08:22:58.535Z,54.93
2017-04-22T08:23:39.098Z,55.4
2017-04-22T08:24:19.635Z,55.97
2017-04-22T08:25:00.186Z,55.69
2017-04-22T08:25:40.707Z,55.59
2017-04-22T08:26:21.274Z,55.88
2017-04-22T08:27:01.812Z,56.07
2017-04-22T08:27:42.357Z,56.26
2017-04-22T08:28:22.873Z,56.73
2017-04-22T08:29:03.450Z,56.45
2017-04-22T08:29:43.977Z,56.92
2017-04-22T08:30:24.522Z,58.06
2017-04-22T08:31:05.070Z,59.33
2017-04-22T08:31:45.607Z,59.39
2017-04-22T08:32:26.152Z,59.71
2017-04-22T08:33:06.679Z,59.52
2017-04-22T08:33:47.236Z,60.18
2017-04-22T08:34:27.752Z,61.52
2017-04-22T08:35:08.280Z,60.75
2017-04-22T08:35:48.822Z,60.85
2017-04-22T08:36:29.350Z,61.8
2017-04-22T08:37:09.876Z,63.42
2017-04-22T08:37:50.415Z,62.05
2017-04-22T08:38:30.956Z,62.27
2017-04-22T08:39:11.486Z,64.34
2017-04-22T08:39:52.028Z,64.14
2017-04-22T08:40:32.558Z,66.52
2017-04-22T08:41:13.094Z,67
2017-04-22T08:41:53.607Z,67.66
2017-04-22T08:42:34.186Z,68.13
2017-04-22T08:43:14.708Z,70.23
2017-04-22T08:43:55.246Z,69.56
2017-04-22T08:44:35.781Z,69.27
2017-04-22T08:45:16.308Z,69.18